Nearby METAR Reports

 

KSJC - San Jose, California, USA
Distance from station: NE 9mi, 14km
Updated: Thu, 05/23/2024 11:53pm
Mostly cloudy
Mostly cloudy
 Wind from N
Wind: N 7 mph, 11 km/h
Temperature: 61°F, 16°C
Dew Point: 45°F, 7°C
Humidity: 55%
Barometer: 29.90 inHg, 1012.5 hPa
Clouds: Mostly cloudy
Visibility: 10 miles, 16 km
Cloud details: Few Clouds 2000 ft
Partly cloudy 8000 ft
Mostly cloudy 12000 ft
2024/05/24 03:53 KSJC 240353Z 35006KT 10SM FEW020 SCT080 BKN120 16/07 A2990 RMK AO2 SLP125 T01560072
KNUQ - Moffett Nas/Mtn, California, USA
Distance from station: N 9mi, 14km
Updated: Fri, 05/24/2024 12:35am
Clear
Clear
 Wind from N
Wind: N 8 mph, 13 km/h
Temperature: 55°F, 13°C
Dew Point: 45°F, 7°C
Humidity: 67%
Barometer: 29.91 inHg, 1012.9 hPa
Clouds: Clear
Visibility: 7 miles, 11 km
2024/05/24 04:35 KNUQ 240435Z AUTO 36007KT 7SM CLR 13/07 A2991 RMK AO2
 
KPAO - Palo Alto, California, USA
Distance from station: NNW 14mi, 23km
Updated: Thu, 05/23/2024 11:47pm
Clear
Clear
 Wind from NNW
Wind: NNW 13 mph, 20 km/h
Temperature: 55°F, 13°C
Dew Point: 45°F, 7°C
Humidity: 67%
Barometer: 29.91 inHg, 1012.9 hPa
Clouds: Clear
Visibility: 10 miles, 16 km
2024/05/24 03:47 KPAO 240347Z 33011KT 10SM SKC 13/07 A2991 RMK LAST
KRHV - San Jose/Reid, California, USA
Distance from station: ENE 12mi, 19km
Updated: Thu, 05/23/2024 11:47pm
Partly cloudy
Partly cloudy
 Wind from NW
Wind: NW 6 mph, 9 km/h
Temperature: 59°F, 15°C
Dew Point: 45°F, 7°C
Humidity: 59%
Barometer: 29.91 inHg, 1012.9 hPa
Clouds: Partly cloudy
Visibility: 10 miles, 16 km
Cloud details: Partly cloudy 12000 ft
2024/05/24 03:47 KRHV 240347Z 31005KT 10SM SCT120 15/07 A2991
 
KOAK - Oakland, California, USA
Distance from station: NNW 31mi, 50km
Updated: Thu, 05/23/2024 11:53pm
Mostly cloudy
Mostly cloudy
 Wind from WNW
Wind: WNW 7 mph, 11 km/h
Temperature: 55°F, 13°C
Dew Point: 46°F, 8°C
Humidity: 72%
Barometer: 29.90 inHg, 1012.5 hPa
Clouds: Mostly cloudy
Visibility: 10 miles, 16 km
Cloud details: Few Clouds 20000 ft
Mostly cloudy 22000 ft
2024/05/24 03:53 KOAK 240353Z 29006KT 10SM FEW200 BKN220 13/08 A2990 RMK AO2 SLP124 T01280083
KSQL - San Carlos Airpo, California, USA
Distance from station: NW 21mi, 34km
Updated: Fri, 05/24/2024 12:35am
Haze, Clear
Haze, Clear
 Wind from WNW
Wind: WNW 9 mph, 15 km/h
Temperature: 54°F, 12°C
Dew Point: 45°F, 7°C
Humidity: 72%
Barometer: 29.93 inHg, 1013.5 hPa
Summary: Haze
Clouds: Clear
Visibility: 6 miles, 10 km
2024/05/24 04:35 KSQL 240435Z AUTO 29008KT 6SM HZ CLR 12/07 A2993 RMK AO2
 
KSFO - San Francisco, California, USA
Distance from station: NW 30mi, 49km
Updated: Thu, 05/23/2024 11:56pm
Partly cloudy
Partly cloudy
 Wind from W
Wind: W 16 mph, 26 km/h, Gust: 28 mph, 44 km/h
Temperature: 54°F, 12°C
Dew Point: 45°F, 7°C
Humidity: 72%
Barometer: 29.90 inHg, 1012.5 hPa
Clouds: Partly cloudy
Visibility: 10 miles, 16 km
Cloud details: Few Clouds 1700 ft
Few Clouds 18000 ft
Partly cloudy 20000 ft
2024/05/24 03:56 KSFO 240356Z 27014G24KT 10SM FEW017 FEW180 SCT200 12/07 A2990 RMK AO2 PK WND 27026/0338 SLP124 T01220072 $
KE16 - San Martin, California, USA
Distance from station: ESE 27mi, 43km
Updated: Fri, 05/24/2024 12:35am
Overcast
Overcast
 Wind from SE
Wind: SE 9 mph, 15 km/h, Gust: 16 mph, 26 km/h
Temperature: 54°F, 12°C
Dew Point: 46°F, 8°C
Humidity: 77%
Barometer: 29.94 inHg, 1013.9 hPa
Clouds: Overcast
Visibility: 7 miles, 11 km
Cloud details: Mostly cloudy 1400 ft
Mostly cloudy 2000 ft
Overcast 2600 ft
2024/05/24 04:35 KE16 240435Z AUTO 13008G14KT 7SM BKN014 BKN020 OVC026 12/08 A2994 RMK AO2 PWINO PNO
 
KWVI - Watsonville, California, USA
Distance from station: SSE 27mi, 44km
Updated: Thu, 05/23/2024 11:53pm
Overcast
Overcast
 Wind from E
Wind: E 6 mph, 9 km/h
Temperature: 52°F, 11°C
Dew Point: 46°F, 8°C
Humidity: 82%
Barometer: 29.93 inHg, 1013.5 hPa
Clouds: Overcast
Visibility: 10 miles, 16 km
Cloud details: Overcast 1500 ft
2024/05/24 03:53 KWVI 240353Z AUTO 08005KT 10SM OVC015 11/08 A2993 RMK AO2 SLP135 T01110083
KHAF - Half Moon Bay, California, USA
Distance from station: WNW 31mi, 50km
Updated: Fri, 05/24/2024 12:35am
Mist, Overcast
Mist, Overcast
 Wind from NW
Wind: NW 9 mph, 15 km/h, Gust: 18 mph, 30 km/h
Temperature: 52°F, 11°C
Dew Point: 48°F, 9°C
Humidity: 88%
Barometer: 29.95 inHg, 1014.2 hPa
Summary: Mist
Clouds: Overcast
Visibility: 5 miles, 8 km
Cloud details: Overcast 1800 ft
2024/05/24 04:35 KHAF 240435Z AUTO 31008G16KT 5SM BR OVC018 11/09 A2995 RMK AO2
 
KHWD - Hayward, California, USA
Distance from station: N 28mi, 44km
Updated: Thu, 05/23/2024 11:54pm
Clear
Clear
 Wind from WSW
Wind: WSW 13 mph, 20 km/h
Temperature: 57°F, 14°C
Dew Point: 46°F, 8°C
Humidity: 67%
Barometer: 29.90 inHg, 1012.5 hPa
Clouds: Clear
Visibility: 10 miles, 16 km
2024/05/24 03:54 KHWD 240354Z AUTO 25011KT 10SM CLR 14/08 A2990 RMK AO2 SLP136 T01390078
KLVK - Livermore, California, USA
Distance from station: NNE 31mi, 51km
Updated: Thu, 05/23/2024 11:53pm
Clear
Clear
 Wind from WNW
Wind: WNW 6 mph, 9 km/h
Temperature: 57°F, 14°C
Dew Point: 45°F, 7°C
Humidity: 63%
Barometer: 29.88 inHg, 1011.9 hPa
Clouds: Clear
Visibility: 8 miles, 13 km
2024/05/24 03:53 KLVK 240353Z 29005KT 8SM CLR 14/07 A2988 RMK AO2 SLP115 T01390072
Number of visitors since April 1, 2024
Free Website Hit Counter
Free website hit counter